This is the latest recevied weather packets stored in our database for station/object N4OGP-WX. If no packets are shown the sender has not sent any weather packets the latest 10 day(s).
| Time | Temp. | Humidity | Pressure | Rain* | Wind** | Luminosity | Snow |
|---|---|---|---|---|---|---|---|
| 1778226838 | 19.44° C | 88% | 1011 hPa | 0 mm | - | - | - |
| 1778226778 | 23.89° C | 42% | 1020.4 hPa | 0 mm | - | - | - |
| 1778226718 | 19.44° C | 88% | 1011 hPa | 0 mm | - | - | - |
| 1778226628 | 19.44° C | 88% | 1011.1 hPa | 0 mm | - | - | - |
| 1778226538 | 19.44° C | 89% | 1011.1 hPa | 0 mm | - | - | - |
| 1778226478 | 19.44° C | 88% | 1011.1 hPa | 0 mm | - | - | - |
| 1778226418 | 19.44° C | 89% | 1011.1 hPa | 0 mm | - | - | - |
| 1778226358 | 19.44° C | 89% | 1011.1 hPa | 0 mm | - | - | - |
| 1778226298 | 23.89° C | 42% | 1020.4 hPa | 0 mm | - | - | - |
| 1778226238 | 19.44° C | 89% | 1011.1 hPa | 0 mm | - | - | - |
| 1778226148 | 19.44° C | 89% | 1011.1 hPa | 0 mm | - | - | - |
| 1778226088 | 23.89° C | 42% | 1020.4 hPa | 0 mm | - | - | - |
| 1778226028 | 23.89° C | 42% | 1020.4 hPa | 0 mm | - | - | - |
| 1778225968 | 23.89° C | 42% | 1020.4 hPa | 0 mm | - | - | - |
| 1778225878 | 19.44° C | 89% | 1011 hPa | 0 mm | - | - | - |
| 1778225818 | 19.44° C | 90% | 1011 hPa | 0 mm | - | - | - |
| 1778225728 | 19.44° C | 90% | 1011 hPa | 0 mm | - | - | - |
| 1778225668 | 19.44° C | 90% | 1011 hPa | 0 mm | - | - | - |
| 1778225578 | 19.44° C | 90% | 1011 hPa | 0 mm | - | - | - |
| 1778225518 | 19.44° C | 90% | 1011 hPa | 0 mm | - | - | - |
| 1778225428 | 19.44° C | 90% | 1011 hPa | 0 mm | - | - | - |
| 1778225368 | 23.89° C | 42% | 1020.4 hPa | 0 mm | - | - | - |
| 1778225278 | 19.44° C | 90% | 1010.9 hPa | 0 mm | - | - | - |
| 1778225218 | 23.89° C | 42% | 1020.4 hPa | 0 mm | - | - | - |
| 1778225128 | 19.44° C | 90% | 1010.9 hPa | 0 mm | - | - | - |
* Rain latest hour (hover to see other rain measurements)
** Current wind speed in m/s (hover to see current wind gust speed)